Tyner, Kentucky
Current Conditions -  °F | °C
As of 4:53 PM on Sunday 25 Jan 2015 (Local Time) from KLOZ Reporting Station
Overcast Overcast  
Wind Chill: 50°   Ceiling: 7000
Heat Index: 50°   Visibility: 10mi
Dew Point: 30°   Wind: 7mph
Humidity: 46%   Direction: 170°S
Pressure: 29.66"   Gusts: NA
Location:  37.35°N, 83.9°W
Report Text: KLOZ 252153Z AUTO 17006KT 10SM SCT050 BKN070 OVC090 10/M01 A2966 RMK AO2 SLP047 T01001011
Loading
Personal Weather Stations






























Interactive Weather Map New forecast layout! Learn more

10-Day Weather Forecast

Advertisements
Track Severe Weather on mobile